createdAt,value
2022-09-01T00:00:11.194Z,20.73
2022-09-01T00:02:38.588Z,20.73
2022-09-01T00:05:07.822Z,20.76
2022-09-01T00:07:35.997Z,20.63
2022-09-01T00:10:08.744Z,20.69
2022-09-01T00:12:37.364Z,20.70
2022-09-01T00:15:10.325Z,20.61
2022-09-01T00:17:38.055Z,20.55
2022-09-01T00:20:07.346Z,20.62
2022-09-01T00:22:34.893Z,20.29
2022-09-01T00:25:03.413Z,20.49
2022-09-01T00:27:31.230Z,20.37
2022-09-01T00:30:00.910Z,20.50
2022-09-01T00:32:29.193Z,20.24
2022-09-01T00:34:56.577Z,20.08
2022-09-01T00:37:23.937Z,20.40
2022-09-01T00:39:51.301Z,20.31
2022-09-01T00:42:18.930Z,20.44
2022-09-01T00:44:46.664Z,20.24
2022-09-01T00:47:14.998Z,20.29
2022-09-01T00:49:51.144Z,20.19
2022-09-01T00:52:44.605Z,20.25
2022-09-01T00:55:35.580Z,20.15
2022-09-01T00:58:06.710Z,20.19
2022-09-01T01:00:49.730Z,19.97
2022-09-01T01:03:17.612Z,19.83
2022-09-01T01:05:58.844Z,20.07
2022-09-01T01:08:35.956Z,19.89
2022-09-01T01:11:11.442Z,20.00
2022-09-01T01:14:12.373Z,19.83
2022-09-01T01:16:45.380Z,19.90
2022-09-01T01:20:07.341Z,19.86
2022-09-01T01:23:48.820Z,19.65
2022-09-01T01:26:16.137Z,19.68
2022-09-01T01:28:45.557Z,19.40
2022-09-01T01:31:24.103Z,19.37
2022-09-01T01:33:56.744Z,19.68
2022-09-01T01:36:37.249Z,19.41
2022-09-01T01:39:21.508Z,19.44
2022-09-01T01:41:49.500Z,19.51
2022-09-01T01:44:28.297Z,19.38
2022-09-01T01:46:57.409Z,19.28
2022-09-01T01:49:31.070Z,19.15
2022-09-01T01:51:59.148Z,19.26
2022-09-01T01:54:32.177Z,19.24
2022-09-01T01:57:06.013Z,19.26
2022-09-01T01:59:33.830Z,19.35
2022-09-01T02:02:03.906Z,19.39
2022-09-01T02:04:34.444Z,19.36
2022-09-01T02:07:01.876Z,18.93
2022-09-01T02:09:29.203Z,19.01
2022-09-01T02:11:58.109Z,19.18
2022-09-01T02:14:25.557Z,19.32
2022-09-01T02:16:56.035Z,19.38
2022-09-01T02:19:23.620Z,19.14
2022-09-01T02:21:56.236Z,19.22
2022-09-01T02:24:24.716Z,19.36
2022-09-01T02:26:52.343Z,19.37
2022-09-01T02:29:29.472Z,19.31
2022-09-01T02:31:57.622Z,19.42
2022-09-01T02:34:28.891Z,19.32
2022-09-01T02:36:57.940Z,18.84
2022-09-01T02:39:33.598Z,19.23
2022-09-01T02:42:02.127Z,19.16
2022-09-01T02:44:32.157Z,19.06
2022-09-01T02:47:01.722Z,19.04
2022-09-01T02:49:29.712Z,18.69
2022-09-01T02:52:03.013Z,18.77
2022-09-01T02:54:33.113Z,18.77
2022-09-01T02:57:01.831Z,18.97
2022-09-01T02:59:30.617Z,18.78
2022-09-01T03:01:58.419Z,19.02
2022-09-01T03:04:27.268Z,19.00
2022-09-01T03:06:58.693Z,18.93
2022-09-01T03:09:26.424Z,18.85
2022-09-01T03:11:55.976Z,18.93
2022-09-01T03:14:24.720Z,18.97
2022-09-01T03:16:52.303Z,18.82
2022-09-01T03:19:20.181Z,18.71
2022-09-01T03:21:48.726Z,18.77
2022-09-01T03:24:18.719Z,18.68
2022-09-01T03:26:50.310Z,18.77
2022-09-01T03:29:19.386Z,18.55
2022-09-01T03:31:47.654Z,18.68
2022-09-01T03:34:18.588Z,18.66
2022-09-01T03:36:50.317Z,19.01
2022-09-01T03:39:19.783Z,18.61
2022-09-01T03:41:47.574Z,18.74
2022-09-01T03:44:16.478Z,18.59
2022-09-01T03:46:45.403Z,18.77
2022-09-01T03:49:23.496Z,18.70
2022-09-01T03:51:53.989Z,18.69
2022-09-01T03:54:28.352Z,18.82
2022-09-01T03:57:00.984Z,18.76
2022-09-01T03:59:29.861Z,18.84
2022-09-01T04:01:59.446Z,18.94
2022-09-01T04:04:27.079Z,18.76
2022-09-01T04:06:54.392Z,18.67
2022-09-01T04:09:21.711Z,18.68
2022-09-01T04:11:52.416Z,18.69
2022-09-01T04:14:20.425Z,18.70
2022-09-01T04:17:06.381Z,18.58
2022-09-01T04:19:39.424Z,18.56
2022-09-01T04:22:08.159Z,18.63
2022-09-01T04:24:35.757Z,18.50
2022-09-01T04:27:04.617Z,18.62
2022-09-01T04:29:33.629Z,18.70
2022-09-01T04:32:12.686Z,18.57
2022-09-01T04:34:42.846Z,18.37
2022-09-01T04:37:21.594Z,18.46
2022-09-01T04:39:56.966Z,18.45
2022-09-01T04:42:29.980Z,18.50
2022-09-01T04:44:58.208Z,18.44
2022-09-01T04:47:35.393Z,18.46
2022-09-01T04:50:14.119Z,18.48
2022-09-01T04:52:42.772Z,18.33
2022-09-01T04:55:17.730Z,18.35
2022-09-01T04:57:49.932Z,18.26
2022-09-01T05:00:25.161Z,18.29
2022-09-01T05:03:04.325Z,18.31
2022-09-01T05:05:45.442Z,18.26
2022-09-01T05:08:24.244Z,18.21
2022-09-01T05:10:56.872Z,18.27
2022-09-01T05:13:24.793Z,18.26
2022-09-01T05:16:13.681Z,18.35
2022-09-01T05:18:50.337Z,18.16
2022-09-01T05:21:22.412Z,18.23
2022-09-01T05:23:51.816Z,18.39
2022-09-01T05:26:31.525Z,18.22
2022-09-01T05:29:05.041Z,18.22
2022-09-01T05:31:37.795Z,18.33
2022-09-01T05:34:07.995Z,18.38
2022-09-01T05:36:38.640Z,18.35
2022-09-01T05:39:07.725Z,18.48
2022-09-01T05:41:35.699Z,18.30
2022-09-01T05:44:08.127Z,18.37
2022-09-01T05:46:39.982Z,18.34
2022-09-01T05:49:14.751Z,18.39
2022-09-01T05:51:52.213Z,18.52
2022-09-01T05:54:27.324Z,18.56
2022-09-01T05:57:12.594Z,18.63
2022-09-01T05:59:48.968Z,18.64
2022-09-01T06:02:17.279Z,18.80
2022-09-01T06:04:44.673Z,18.98
2022-09-01T06:07:25.005Z,19.01
2022-09-01T06:09:53.718Z,18.93
2022-09-01T06:12:23.957Z,18.85
2022-09-01T06:14:54.681Z,19.08
2022-09-01T06:17:28.351Z,19.15
2022-09-01T06:19:57.488Z,19.11
2022-09-01T06:22:28.727Z,19.30
2022-09-01T06:25:02.267Z,19.24
2022-09-01T06:27:30.251Z,19.45
2022-09-01T06:29:58.257Z,19.41
2022-09-01T06:32:27.924Z,19.34
2022-09-01T06:34:58.069Z,19.39
2022-09-01T06:37:25.726Z,19.49
2022-09-01T06:39:53.046Z,19.53
2022-09-01T06:42:20.497Z,19.58
2022-09-01T06:44:47.877Z,19.57
2022-09-01T06:47:15.574Z,19.55
2022-09-01T06:49:43.141Z,19.44
2022-09-01T06:52:13.802Z,19.46
2022-09-01T06:54:43.863Z,19.50
2022-09-01T07:00:01.470Z,19.67
2022-09-01T07:02:30.295Z,19.72
2022-09-01T07:05:02.164Z,19.87
2022-09-01T07:10:28.811Z,19.75
2022-09-01T07:13:07.370Z,19.94
2022-09-01T07:18:33.025Z,20.05
2022-09-01T07:21:36.296Z,20.08
2022-09-01T07:24:11.273Z,20.23
2022-09-01T07:26:48.799Z,20.14
2022-09-01T07:29:17.622Z,20.15
2022-09-01T07:32:43.449Z,20.13
2022-09-01T07:34:39.554Z,20.18
2022-09-01T07:39:56.353Z,20.28
2022-09-01T07:45:29.660Z,20.11
2022-09-01T07:48:06.653Z,20.25
2022-09-01T07:51:35.005Z,20.34
2022-09-01T07:53:36.020Z,20.50
2022-09-01T07:56:12.725Z,20.56
2022-09-01T07:58:42.092Z,20.66
2022-09-01T08:01:21.959Z,20.74
2022-09-01T08:03:58.319Z,20.73
2022-09-01T08:06:28.997Z,20.59
2022-09-01T08:09:00.793Z,20.72
2022-09-01T08:14:18.739Z,20.84
2022-09-01T08:16:53.755Z,21.02
2022-09-01T08:19:21.759Z,20.95
2022-09-01T08:21:49.733Z,20.97
2022-09-01T08:24:17.327Z,21.04
2022-09-01T08:26:44.649Z,21.18
2022-09-01T08:29:12.012Z,21.21
2022-09-01T08:31:39.361Z,21.22
2022-09-01T08:34:06.733Z,21.26
2022-09-01T08:36:35.394Z,21.27
2022-09-01T08:39:02.844Z,21.01
2022-09-01T08:42:19.445Z,21.29
2022-09-01T08:45:49.473Z,21.46
2022-09-01T08:49:23.559Z,21.49
2022-09-01T08:52:06.201Z,21.46
2022-09-01T08:54:46.745Z,21.41
2022-09-01T08:57:32.609Z,21.45
2022-09-01T09:00:00.444Z,21.53
2022-09-01T09:03:17.079Z,21.57
2022-09-01T09:06:05.376Z,21.69
2022-09-01T09:08:54.238Z,21.81
2022-09-01T09:11:55.677Z,21.64
2022-09-01T09:14:58.460Z,21.62
2022-09-01T09:17:40.853Z,21.83
2022-09-01T09:20:09.382Z,22.00
2022-09-01T09:22:36.824Z,21.94
2022-09-01T09:25:19.211Z,22.10
2022-09-01T09:28:00.511Z,22.09
2022-09-01T09:30:32.470Z,22.19
2022-09-01T09:33:47.676Z,22.29
2022-09-01T09:36:32.381Z,22.43
2022-09-01T09:39:18.201Z,22.48
2022-09-01T09:42:15.248Z,22.70
2022-09-01T09:44:52.849Z,22.68
2022-09-01T09:47:46.626Z,22.54
2022-09-01T09:50:40.858Z,22.72
2022-09-01T09:53:33.377Z,22.97
2022-09-01T09:56:24.444Z,22.86
2022-09-01T09:58:53.510Z,23.08
2022-09-01T10:01:24.321Z,22.97
2022-09-01T10:03:59.305Z,23.24
2022-09-01T10:06:47.475Z,23.23
2022-09-01T10:09:39.841Z,23.32
2022-09-01T10:12:09.856Z,23.57
2022-09-01T10:14:54.421Z,23.58
2022-09-01T10:17:40.533Z,23.52
2022-09-01T10:20:26.190Z,23.66
2022-09-01T10:22:56.086Z,23.93
2022-09-01T10:25:32.247Z,23.67
2022-09-01T10:28:13.177Z,23.87
2022-09-01T10:30:46.150Z,23.92
2022-09-01T10:33:20.932Z,24.12
2022-09-01T10:35:55.527Z,24.15
2022-09-01T10:38:30.504Z,24.32
2022-09-01T10:41:14.244Z,24.42
2022-09-01T10:43:49.379Z,24.54
2022-09-01T10:46:38.542Z,24.41
2022-09-01T10:49:46.742Z,24.72
2022-09-01T10:52:43.323Z,24.47
2022-09-01T10:55:38.336Z,24.84
2022-09-01T11:01:49.885Z,25.24
2022-09-01T11:04:44.907Z,25.41
2022-09-01T11:07:44.404Z,25.59
2022-09-01T11:10:52.611Z,25.79
2022-09-01T11:13:54.940Z,25.98
2022-09-01T11:16:48.112Z,25.79
2022-09-01T11:19:42.886Z,25.94
2022-09-01T11:22:28.454Z,26.24
2022-09-01T11:25:40.315Z,26.49
2022-09-01T11:28:35.080Z,26.19
2022-09-01T11:31:11.507Z,26.46
2022-09-01T11:34:19.863Z,26.60
2022-09-01T11:37:01.220Z,26.68
2022-09-01T11:39:59.051Z,26.47
2022-09-01T11:42:45.870Z,26.62
2022-09-01T11:45:32.906Z,26.79
2022-09-01T11:48:11.466Z,27.07
2022-09-01T11:50:42.463Z,27.03
2022-09-01T11:53:21.727Z,27.18
2022-09-01T11:55:56.943Z,27.34
2022-09-01T11:58:33.108Z,27.60
2022-09-01T12:01:37.752Z,27.74
2022-09-01T12:04:31.826Z,27.41
2022-09-01T12:07:10.922Z,27.32
2022-09-01T12:09:48.025Z,27.56
2022-09-01T12:12:39.984Z,27.59
2022-09-01T12:15:23.363Z,28.13
2022-09-01T12:17:52.574Z,27.71
2022-09-01T12:20:31.127Z,28.02
2022-09-01T12:23:00.705Z,28.16
2022-09-01T12:25:34.723Z,27.86
2022-09-01T12:28:06.221Z,27.87
2022-09-01T12:30:39.627Z,28.00
2022-09-01T12:33:29.618Z,27.61
2022-09-01T12:36:30.322Z,27.96
2022-09-01T12:39:18.112Z,27.93
2022-09-01T12:42:24.382Z,28.53
2022-09-01T12:45:13.244Z,28.29
2022-09-01T12:47:48.098Z,28.39
2022-09-01T12:50:16.400Z,28.27
2022-09-01T12:52:58.577Z,28.08
2022-09-01T12:55:52.555Z,28.13
2022-09-01T12:58:26.807Z,28.76
2022-09-01T13:01:16.095Z,29.20
2022-09-01T13:04:24.500Z,28.86
2022-09-01T13:06:56.636Z,29.18
2022-09-01T13:09:26.096Z,29.05
2022-09-01T13:12:08.919Z,29.49
2022-09-01T13:14:36.293Z,29.20
2022-09-01T13:17:04.321Z,29.45
2022-09-01T13:19:31.804Z,29.38
2022-09-01T13:21:59.193Z,29.66
2022-09-01T13:24:30.434Z,29.74
2022-09-01T13:29:47.193Z,29.69
2022-09-01T13:32:18.923Z,30.00
2022-09-01T13:34:50.734Z,29.44
2022-09-01T13:37:22.518Z,29.80
2022-09-01T13:39:50.753Z,30.09
2022-09-01T13:42:18.193Z,29.69
2022-09-01T13:44:49.750Z,30.15
2022-09-01T13:47:35.538Z,30.23
2022-09-01T13:50:16.365Z,30.27
2022-09-01T13:52:57.477Z,29.95
2022-09-01T13:55:34.064Z,30.05
2022-09-01T13:58:01.644Z,30.21
2022-09-01T14:00:41.718Z,30.17
2022-09-01T14:03:18.597Z,30.42
2022-09-01T14:05:48.625Z,30.67
2022-09-01T14:08:22.712Z,30.34
2022-09-01T14:10:53.681Z,30.28
2022-09-01T14:13:25.035Z,30.30
2022-09-01T14:15:54.984Z,30.38
2022-09-01T14:18:22.876Z,30.20
2022-09-01T14:20:52.341Z,30.31
2022-09-01T14:23:20.661Z,30.47
2022-09-01T14:25:52.612Z,30.63
2022-09-01T14:28:23.526Z,30.27
2022-09-01T14:33:24.264Z,30.44
2022-09-01T14:35:51.701Z,30.46
2022-09-01T14:38:20.191Z,30.45
2022-09-01T14:40:53.866Z,30.62
2022-09-01T14:43:22.028Z,30.71
2022-09-01T14:45:50.365Z,30.15
2022-09-01T14:48:20.750Z,30.45
2022-09-01T14:50:50.861Z,30.56
2022-09-01T14:53:19.054Z,30.52
2022-09-01T14:55:46.546Z,30.64
2022-09-01T14:58:13.859Z,30.70
2022-09-01T15:00:42.339Z,30.72
2022-09-01T15:03:10.523Z,30.90
2022-09-01T15:05:40.081Z,30.87
2022-09-01T15:08:15.460Z,30.69
2022-09-01T15:10:44.687Z,30.55
2022-09-01T15:13:13.813Z,30.48
2022-09-01T15:15:41.972Z,30.30
2022-09-01T15:18:12.284Z,30.44
2022-09-01T15:20:45.625Z,30.20
2022-09-01T15:23:25.257Z,30.34
2022-09-01T15:25:57.957Z,30.24
2022-09-01T15:28:27.145Z,30.20
2022-09-01T15:30:54.765Z,30.08
2022-09-01T15:33:22.263Z,29.89
2022-09-01T15:35:49.593Z,30.10
2022-09-01T15:38:17.736Z,29.88
2022-09-01T15:40:57.242Z,29.49
2022-09-01T15:43:29.510Z,29.30
2022-09-01T15:45:59.601Z,29.08
2022-09-01T15:48:29.205Z,29.35
2022-09-01T15:51:22.874Z,29.34
2022-09-01T15:53:58.408Z,29.32
2022-09-01T15:56:27.200Z,29.24
2022-09-01T15:59:02.666Z,29.03
2022-09-01T16:01:36.866Z,29.45
2022-09-01T16:04:09.197Z,29.18
2022-09-01T16:06:36.634Z,29.10
2022-09-01T16:09:07.012Z,28.87
2022-09-01T16:11:37.473Z,28.94
2022-09-01T16:14:05.853Z,28.78
2022-09-01T16:17:11.922Z,28.82
2022-09-01T16:19:53.884Z,28.64
2022-09-01T16:22:43.271Z,28.37
2022-09-01T16:25:31.591Z,28.47
2022-09-01T16:28:30.689Z,28.47
2022-09-01T16:31:19.045Z,28.19
2022-09-01T16:33:56.936Z,28.14
2022-09-01T16:37:05.605Z,27.86
2022-09-01T16:39:47.188Z,27.90
2022-09-01T16:43:16.970Z,27.86
2022-09-01T16:46:43.252Z,27.65
2022-09-01T16:49:45.569Z,27.66
2022-09-01T16:52:29.509Z,27.73
2022-09-01T16:55:57.153Z,27.42
2022-09-01T16:59:33.807Z,27.29
2022-09-01T17:02:56.584Z,27.09
2022-09-01T17:05:56.777Z,27.16
2022-09-01T17:08:55.395Z,26.98
2022-09-01T17:11:49.267Z,26.96
2022-09-01T17:14:38.089Z,26.88
2022-09-01T17:17:16.395Z,26.60
2022-09-01T17:19:45.613Z,26.73
2022-09-01T17:22:15.869Z,26.53
2022-09-01T17:24:49.324Z,26.46
2022-09-01T17:27:46.521Z,26.22
2022-09-01T17:30:14.111Z,26.22
2022-09-01T17:33:27.849Z,26.27
2022-09-01T17:36:51.389Z,26.07
2022-09-01T17:39:49.343Z,26.14
2022-09-01T17:42:56.731Z,25.82
2022-09-01T17:45:54.671Z,25.92
2022-09-01T17:48:50.740Z,25.74
2022-09-01T17:51:57.605Z,25.61
2022-09-01T17:55:15.048Z,25.55
2022-09-01T17:58:02.853Z,25.69
2022-09-01T18:01:03.023Z,25.34
2022-09-01T18:04:36.009Z,25.45
2022-09-01T18:08:01.585Z,25.44
2022-09-01T18:10:54.514Z,25.36
2022-09-01T18:13:55.009Z,25.30
2022-09-01T18:16:51.416Z,25.35
2022-09-01T18:19:36.424Z,25.37
2022-09-01T18:22:25.756Z,25.11
2022-09-01T18:25:17.345Z,25.12
2022-09-01T18:27:48.292Z,25.09
2022-09-01T18:30:36.223Z,24.94
2022-09-01T18:34:02.761Z,24.97
2022-09-01T18:37:05.103Z,24.90
2022-09-01T18:40:03.161Z,24.89
2022-09-01T18:43:04.769Z,24.85
2022-09-01T18:46:09.564Z,24.90
2022-09-01T18:49:15.870Z,24.76
2022-09-01T18:52:35.205Z,24.74
2022-09-01T18:55:57.093Z,24.67
2022-09-01T18:59:00.892Z,24.57
2022-09-01T19:01:54.036Z,24.49
2022-09-01T19:04:39.433Z,24.54
2022-09-01T19:08:10.418Z,24.47
2022-09-01T19:11:34.629Z,24.28
2022-09-01T19:14:16.721Z,24.36
2022-09-01T19:17:20.883Z,24.12
2022-09-01T19:20:11.239Z,24.27
2022-09-01T19:23:14.160Z,24.30
2022-09-01T19:25:43.418Z,24.20
2022-09-01T19:28:49.338Z,24.14
2022-09-01T19:31:38.392Z,24.14
2022-09-01T19:34:25.696Z,24.07
2022-09-01T19:36:59.925Z,24.06
2022-09-01T19:39:40.598Z,24.05
2022-09-01T19:43:07.427Z,24.00
2022-09-01T19:46:09.600Z,23.96
2022-09-01T19:49:02.521Z,23.81
2022-09-01T19:52:29.196Z,23.88
2022-09-01T19:55:52.603Z,23.66
2022-09-01T19:59:13.967Z,23.78
2022-09-01T20:02:21.769Z,23.80
2022-09-01T20:05:54.300Z,23.63
2022-09-01T20:09:23.426Z,23.67
2022-09-01T20:12:42.313Z,23.44
2022-09-01T20:16:05.951Z,23.56
2022-09-01T20:18:54.920Z,23.50
2022-09-01T20:21:22.285Z,23.55
2022-09-01T20:24:40.464Z,23.34
2022-09-01T20:28:05.380Z,23.23
2022-09-01T20:30:51.119Z,23.34
2022-09-01T20:33:49.393Z,23.29
2022-09-01T20:37:16.492Z,23.23
2022-09-01T20:40:27.467Z,23.24
2022-09-01T20:43:24.697Z,23.31
2022-09-01T20:45:53.066Z,23.27
2022-09-01T20:48:27.000Z,23.21
2022-09-01T20:51:45.758Z,23.02
2022-09-01T20:54:28.341Z,23.07
2022-09-01T20:57:50.701Z,22.92
2022-09-01T21:00:29.830Z,22.99
2022-09-01T21:03:49.855Z,22.81
2022-09-01T21:06:30.589Z,22.75
2022-09-01T21:09:33.498Z,22.83
2022-09-01T21:12:57.795Z,22.67
2022-09-01T21:15:52.101Z,22.70
2022-09-01T21:19:21.285Z,22.66
2022-09-01T21:22:21.928Z,22.69
2022-09-01T21:24:50.868Z,22.65
2022-09-01T21:27:36.994Z,22.63
2022-09-01T21:30:15.367Z,22.58
2022-09-01T21:32:43.261Z,22.67
2022-09-01T21:35:17.727Z,22.33
2022-09-01T21:37:45.747Z,22.47
2022-09-01T21:40:15.172Z,22.43
2022-09-01T21:43:01.256Z,22.42
2022-09-01T21:45:30.157Z,22.30
2022-09-01T21:47:57.548Z,22.35
2022-09-01T21:50:26.181Z,22.36
2022-09-01T21:52:53.543Z,22.22
2022-09-01T21:55:23.330Z,22.25
2022-09-01T21:57:51.998Z,22.20
2022-09-01T22:00:26.620Z,22.22
2022-09-01T22:02:57.671Z,22.21
2022-09-01T22:05:26.318Z,22.05
2022-09-01T22:07:55.992Z,22.12
2022-09-01T22:10:28.928Z,22.10
2022-09-01T22:12:58.009Z,22.04
2022-09-01T22:15:26.508Z,22.10
2022-09-01T22:17:56.620Z,22.07
2022-09-01T22:20:26.057Z,22.05
2022-09-01T22:22:56.700Z,22.06
2022-09-01T22:25:24.148Z,21.84
2022-09-01T22:27:51.548Z,21.85
2022-09-01T22:30:19.310Z,21.90
2022-09-01T22:32:47.909Z,21.89
2022-09-01T22:35:18.409Z,21.87
2022-09-01T22:37:47.224Z,21.87
2022-09-01T22:40:16.460Z,21.82
2022-09-01T22:42:44.833Z,21.67
2022-09-01T22:45:15.332Z,21.69
2022-09-01T22:47:42.900Z,21.58
2022-09-01T22:50:11.697Z,21.66
2022-09-01T22:52:40.217Z,21.56
2022-09-01T22:55:10.811Z,21.60
2022-09-01T22:57:38.776Z,21.51
2022-09-01T23:00:10.490Z,21.61
2022-09-01T23:02:38.430Z,21.55
2022-09-01T23:05:07.828Z,21.24
2022-09-01T23:07:39.797Z,21.54
2022-09-01T23:10:09.381Z,21.42
2022-09-01T23:12:38.172Z,21.26
2022-09-01T23:15:07.591Z,21.26
2022-09-01T23:17:37.812Z,21.32
2022-09-01T23:20:13.037Z,21.29
2022-09-01T23:22:44.528Z,21.19
2022-09-01T23:25:16.745Z,21.20
2022-09-01T23:27:44.360Z,21.17
2022-09-01T23:30:14.960Z,21.22
2022-09-01T23:32:42.425Z,21.15
2022-09-01T23:35:10.897Z,21.17
2022-09-01T23:37:38.295Z,21.15
2022-09-01T23:40:08.068Z,21.17
2022-09-01T23:42:36.592Z,21.21
2022-09-01T23:45:04.972Z,21.07
2022-09-01T23:47:32.480Z,21.15
2022-09-01T23:49:59.896Z,20.97
2022-09-01T23:52:27.239Z,20.99
2022-09-01T23:54:54.614Z,20.97
2022-09-01T23:57:22.084Z,21.05
2022-09-01T23:59:49.540Z,21.08
